Time;durP1;ratioP1;P1;durP2;ratioP2;P2;SDS_P1;SDS_P2;PMS_P1;PMS_P2;Temp;Humidity;BMP_temperature;BMP_pressure;BME280_temperature;BME280_humidity;BME280_pressure;Samples;Min_cycle;Max_cycle;Signal;HPM_P1;HPM_P2
2022/08/21 00:00:12;;;;;;;4.05;2.80;;;15.90;99.90;;;;;;5013495;28;20042;-89
2022/08/21 00:02:49;;;;;;;6.35;2.85;;;15.80;99.90;;;;;;4980111;28;20049;-90
2022/08/21 00:05:14;;;;;;;5.70;2.85;;;15.80;99.90;;;;;;4979629;28;20133;-92
2022/08/21 00:07:40;;;;;;;6.15;2.90;;;15.70;99.90;;;;;;4995468;28;20141;-90
2022/08/21 00:10:06;;;;;;;9.05;3.05;;;15.70;99.90;;;;;;5013105;28;20061;-89
2022/08/21 00:12:32;;;;;;;4.68;2.92;;;15.70;99.90;;;;;;4996912;28;20060;-91
2022/08/21 00:14:58;;;;;;;5.95;2.90;;;15.70;99.90;;;;;;4996957;28;20045;-91
2022/08/21 00:17:24;;;;;;;7.13;2.83;;;15.60;99.90;;;;;;4996054;28;20054;-90
2022/08/21 00:19:49;;;;;;;6.82;2.83;;;15.60;99.90;;;;;;4996277;28;20121;-90
2022/08/21 00:22:15;;;;;;;6.22;3.03;;;15.50;99.90;;;;;;4963684;28;20058;-90
2022/08/21 00:24:40;;;;;;;9.23;4.22;;;15.50;99.90;;;;;;4994755;28;20049;-91
2022/08/21 00:27:06;;;;;;;7.22;2.95;;;15.40;99.90;;;;;;4996257;28;20046;-92
2022/08/21 00:29:32;;;;;;;6.55;3.38;;;15.40;99.90;;;;;;4979381;28;20071;-92
2022/08/21 00:31:58;;;;;;;7.40;2.95;;;15.40;99.90;;;;;;4979181;28;20087;-92
2022/08/21 00:34:24;;;;;;;7.53;3.20;;;15.30;99.90;;;;;;5012570;28;20446;-91
2022/08/21 00:36:50;;;;;;;6.32;3.00;;;15.30;99.90;;;;;;4995110;28;20065;-90
2022/08/21 00:39:15;;;;;;;5.78;2.97;;;15.30;99.90;;;;;;4995023;28;20513;-92
2022/08/21 00:41:41;;;;;;;6.40;2.75;;;15.20;99.90;;;;;;4995402;28;20128;-91
2022/08/21 00:44:08;;;;;;;7.65;2.75;;;15.20;99.90;;;;;;4962805;28;20412;-90
2022/08/21 00:46:34;;;;;;;8.00;3.30;;;15.10;99.90;;;;;;4962982;28;20058;-92
2022/08/21 00:49:00;;;;;;;5.47;3.30;;;15.00;99.90;;;;;;5012990;28;20060;-92
2022/08/21 00:51:38;;;;;;;5.80;3.13;;;15.00;99.90;;;;;;4979801;28;20466;-90
2022/08/21 00:54:04;;;;;;;3.92;2.85;;;15.00;99.90;;;;;;4996552;28;20050;-92
2022/08/21 00:56:30;;;;;;;8.75;3.28;;;14.90;99.90;;;;;;4978943;28;20089;-89
2022/08/21 00:58:56;;;;;;;4.20;2.97;;;14.90;99.90;;;;;;4995511;28;20462;-90
2022/08/21 01:01:22;;;;;;;5.03;3.30;;;14.90;99.90;;;;;;4978679;28;20060;-91
2022/08/21 01:03:47;;;;;;;6.43;3.13;;;14.90;99.90;;;;;;4978451;28;20085;-91
2022/08/21 01:06:13;;;;;;;5.32;3.13;;;14.80;99.90;;;;;;4994578;28;20429;-89
2022/08/21 01:08:39;;;;;;;4.85;3.20;;;14.80;99.90;;;;;;4978379;28;20100;-92
2022/08/21 01:11:04;;;;;;;5.53;3.38;;;14.70;99.90;;;;;;4978007;28;20945;-90
2022/08/21 01:13:34;;;;;;;7.57;3.28;;;14.70;99.90;;;;;;4978217;28;20093;-90
2022/08/21 01:16:00;;;;;;;5.68;2.85;;;14.70;99.90;;;;;;4994527;28;20049;-90
2022/08/21 01:18:26;;;;;;;7.70;3.63;;;14.60;99.90;;;;;;4977935;28;20442;-89
2022/08/21 01:21:22;;;;;;;5.25;2.95;;;14.60;99.90;;;;;;4978630;28;20044;-88
2022/08/21 01:23:50;;;;;;;7.05;3.15;;;14.60;99.90;;;;;;4963022;28;20144;-90
2022/08/21 01:26:17;;;;;;;6.57;3.20;;;14.60;99.90;;;;;;4995150;28;20179;-89
2022/08/21 01:28:55;;;;;;;6.07;2.90;;;14.50;99.90;;;;;;4986499;28;20367;-91
2022/08/21 01:31:22;;;;;;;8.98;3.47;;;14.50;99.90;;;;;;4993187;28;20077;-91
2022/08/21 01:33:48;;;;;;;8.57;3.10;;;14.50;99.90;;;;;;5002818;28;20057;-87
2022/08/21 01:36:13;;;;;;;5.63;3.03;;;14.40;99.90;;;;;;5018349;28;20049;-88
2022/08/21 01:38:39;;;;;;;6.00;3.00;;;14.40;99.90;;;;;;5000792;28;20057;-90
2022/08/21 01:41:05;;;;;;;9.07;3.40;;;14.40;99.90;;;;;;5001093;28;20056;-89
2022/08/21 01:43:30;;;;;;;7.07;3.10;;;14.30;99.90;;;;;;4993392;28;20569;-90
2022/08/21 01:45:56;;;;;;;4.97;3.20;;;14.30;99.90;;;;;;4999615;28;20216;-88
2022/08/21 01:48:22;;;;;;;8.07;3.10;;;14.30;99.90;;;;;;4981304;28;20429;-91
2022/08/21 01:50:47;;;;;;;5.10;3.60;;;14.30;99.90;;;;;;4996610;28;20042;-92
2022/08/21 01:53:15;;;;;;;6.13;3.42;;;14.30;99.90;;;;;;5013359;28;20061;-86
2022/08/21 01:55:41;;;;;;;8.40;3.60;;;14.20;99.90;;;;;;4996975;28;20057;-89
2022/08/21 01:58:07;;;;;;;8.70;3.40;;;14.20;99.90;;;;;;4999083;28;20561;-91
2022/08/21 02:00:32;;;;;;;7.40;4.00;;;14.20;99.90;;;;;;4980152;28;20089;-92
2022/08/21 02:02:58;;;;;;;9.35;3.92;;;14.20;99.90;;;;;;4996768;28;20054;-91
2022/08/21 02:05:24;;;;;;;6.22;4.07;;;14.20;99.90;;;;;;4997651;28;20050;-91
2022/08/21 02:07:51;;;;;;;6.78;3.97;;;14.10;99.90;;;;;;4980608;28;20057;-90
2022/08/21 02:10:21;;;;;;;7.35;4.00;;;14.10;99.90;;;;;;4981398;28;20109;-89
2022/08/21 02:12:47;;;;;;;10.55;4.47;;;14.20;99.90;;;;;;4980549;28;20060;-90
2022/08/21 02:15:13;;;;;;;9.82;4.75;;;14.20;99.90;;;;;;5012827;28;20049;-88
2022/08/21 02:17:41;;;;;;;9.35;5.10;;;14.10;99.90;;;;;;4978774;28;20069;-91
2022/08/21 02:20:08;;;;;;;8.05;4.75;;;14.10;99.90;;;;;;4963244;28;20053;-91
2022/08/21 02:22:35;;;;;;;10.98;5.22;;;14.20;99.90;;;;;;4994816;28;20104;-93
2022/08/21 02:25:00;;;;;;;10.48;5.28;;;14.20;99.90;;;;;;4980083;28;20065;-93
2022/08/21 02:27:26;;;;;;;12.63;5.82;;;14.20;99.90;;;;;;4995837;28;20060;-90
2022/08/21 02:29:52;;;;;;;9.65;5.47;;;14.20;99.90;;;;;;4979628;28;20054;-92
2022/08/21 02:32:17;;;;;;;9.82;5.57;;;14.20;99.90;;;;;;4980170;28;20482;-90
2022/08/21 02:34:43;;;;;;;10.80;6.07;;;14.20;99.90;;;;;;5013711;28;20066;-89
2022/08/21 02:37:08;;;;;;;10.57;6.28;;;14.30;99.90;;;;;;4979032;28;20057;-91
2022/08/21 02:39:34;;;;;;;11.85;6.53;;;14.30;99.90;;;;;;4977843;28;20046;-91
2022/08/21 02:42:00;;;;;;;10.40;6.45;;;14.40;99.90;;;;;;4994899;28;20045;-92
2022/08/21 02:44:25;;;;;;;11.95;7.00;;;14.40;99.90;;;;;;4978439;28;20478;-91
2022/08/21 02:46:51;;;;;;;14.27;7.07;;;14.40;99.90;;;;;;4995339;28;20058;-92
2022/08/21 02:49:17;;;;;;;7.95;6.75;;;14.40;99.90;;;;;;4997939;28;20132;-91
2022/08/21 02:51:43;;;;;;;11.20;6.72;;;14.40;99.90;;;;;;4982790;28;20041;-90
2022/08/21 02:54:08;;;;;;;9.15;6.68;;;14.40;99.90;;;;;;4966068;28;20050;-90
2022/08/21 02:56:34;;;;;;;13.38;6.82;;;14.40;99.90;;;;;;4998120;28;20045;-90
2022/08/21 02:58:59;;;;;;;15.52;7.20;;;14.40;99.90;;;;;;4998500;28;20049;-92
2022/08/21 03:01:26;;;;;;;11.75;6.68;;;14.40;99.90;;;;;;4982403;28;20049;-93
2022/08/21 03:03:53;;;;;;;12.75;6.30;;;14.40;99.90;;;;;;4998314;28;20096;-91
2022/08/21 03:06:20;;;;;;;11.90;6.50;;;14.30;99.90;;;;;;5015402;28;20104;-91
2022/08/21 03:08:46;;;;;;;11.60;6.82;;;14.30;99.90;;;;;;4980888;28;20111;-91
2022/08/21 03:11:12;;;;;;;9.95;5.85;;;14.30;99.90;;;;;;4982083;28;20050;-92
2022/08/21 03:13:38;;;;;;;10.35;6.25;;;14.20;99.90;;;;;;4998039;28;20132;-92
2022/08/21 03:16:04;;;;;;;11.70;7.35;;;14.30;99.90;;;;;;4998946;28;20096;-90
2022/08/21 03:18:30;;;;;;;11.13;6.63;;;14.20;99.90;;;;;;4982395;28;20085;-92
2022/08/21 03:20:55;;;;;;;11.82;6.95;;;14.20;99.90;;;;;;4999776;28;20371;-93
2022/08/21 03:23:21;;;;;;;9.10;6.78;;;14.10;99.90;;;;;;4999331;28;20041;-91
2022/08/21 03:25:48;;;;;;;11.45;6.85;;;14.10;99.90;;;;;;4997922;28;20371;-91
2022/08/21 03:28:15;;;;;;;7.82;6.40;;;14.10;99.90;;;;;;4997822;28;20075;-92
2022/08/21 03:30:42;;;;;;;9.40;6.32;;;14.00;99.90;;;;;;4998777;28;20046;-93
2022/08/21 03:33:07;;;;;;;15.07;8.65;;;14.00;99.90;;;;;;4982651;28;20072;-91
2022/08/21 03:35:33;;;;;;;14.85;7.60;;;14.00;99.90;;;;;;4982292;28;20053;-91
2022/08/21 03:37:59;;;;;;;10.90;7.13;;;14.00;99.90;;;;;;4997279;28;20049;-91
2022/08/21 03:40:24;;;;;;;12.02;8.02;;;14.00;99.90;;;;;;4997063;28;20152;-91
2022/08/21 03:42:50;;;;;;;12.45;7.30;;;14.00;99.90;;;;;;4997232;28;20050;-92
2022/08/21 03:45:16;;;;;;;11.52;7.57;;;14.00;99.90;;;;;;4981563;28;20038;-92
2022/08/21 03:47:57;;;;;;;12.23;7.40;;;14.00;99.90;;;;;;4980803;28;20375;-91
2022/08/21 03:50:24;;;;;;;11.73;6.90;;;14.00;99.90;;;;;;4981160;28;20054;-93
2022/08/21 03:52:50;;;;;;;10.60;7.65;;;13.90;99.90;;;;;;4997224;28;20053;-92
2022/08/21 03:55:15;;;;;;;11.93;7.20;;;13.90;99.90;;;;;;4980498;28;20504;-89
2022/08/21 03:57:41;;;;;;;14.05;7.78;;;13.90;99.90;;;;;;4982271;28;20057;-90
2022/08/21 04:00:11;;;;;;;11.25;7.55;;;13.90;99.90;;;;;;5001602;28;20053;-92
2022/08/21 04:02:38;;;;;;;13.88;7.50;;;13.90;99.90;;;;;;4984141;28;20096;-91
2022/08/21 04:05:04;;;;;;;13.93;7.57;;;13.90;99.90;;;;;;4981954;28;20054;-92
2022/08/21 04:07:29;;;;;;;12.63;7.57;;;13.90;99.90;;;;;;4998168;28;20069;-89
2022/08/21 04:09:55;;;;;;;11.13;6.82;;;13.90;99.90;;;;;;5004153;28;20482;-90
2022/08/21 04:12:21;;;;;;;11.05;7.32;;;13.90;99.90;;;;;;4987132;28;20049;-90
2022/08/21 04:14:47;;;;;;;12.02;8.00;;;13.80;99.90;;;;;;4982659;28;20056;-91
2022/08/21 04:17:12;;;;;;;9.65;7.45;;;13.80;99.90;;;;;;4982247;28;20394;-90
2022/08/21 04:19:38;;;;;;;11.55;8.20;;;13.80;99.90;;;;;;5001491;28;20050;-91
2022/08/21 04:22:04;;;;;;;12.57;7.82;;;13.80;99.90;;;;;;4983292;28;20052;-92
2022/08/21 04:24:29;;;;;;;12.88;8.13;;;13.80;99.90;;;;;;5001518;28;20045;-90
2022/08/21 04:26:55;;;;;;;13.80;7.90;;;13.80;99.90;;;;;;4984207;28;20050;-90
2022/08/21 04:29:21;;;;;;;12.15;7.63;;;13.80;99.90;;;;;;4999042;28;20080;-93
2022/08/21 04:31:46;;;;;;;11.10;7.90;;;13.80;99.90;;;;;;4980725;28;20053;-90
2022/08/21 04:34:13;;;;;;;10.63;8.18;;;13.80;99.90;;;;;;4998089;28;20045;-92
2022/08/21 04:36:38;;;;;;;12.13;8.40;;;13.80;99.90;;;;;;4995600;28;20050;-91
2022/08/21 04:39:04;;;;;;;14.27;8.27;;;13.80;99.90;;;;;;4995886;28;20104;-91
2022/08/21 04:41:30;;;;;;;17.40;8.43;;;13.80;99.90;;;;;;4996468;28;20128;-91
2022/08/21 04:43:55;;;;;;;14.38;9.25;;;13.80;99.90;;;;;;4979292;28;20145;-89
2022/08/21 04:46:22;;;;;;;14.65;8.45;;;13.90;99.90;;;;;;4964445;28;20057;-90
2022/08/21 04:48:48;;;;;;;11.45;7.78;;;13.90;99.90;;;;;;4980040;28;20050;-92
2022/08/21 04:51:22;;;;;;;11.02;7.85;;;13.90;99.90;;;;;;4979962;28;20410;-92
2022/08/21 04:53:54;;;;;;;16.02;8.05;;;14.00;99.90;;;;;;4996320;28;20093;-91
2022/08/21 04:56:35;;;;;;;14.68;7.68;;;14.20;99.90;;;;;;4964466;28;20062;-91
2022/08/21 04:59:04;;;;;;;9.50;7.05;;;14.60;99.90;;;;;;4979989;28;20141;-90
2022/08/21 05:01:31;;;;;;;10.55;6.43;;;15.10;99.90;;;;;;4995202;28;20075;-90
2022/08/21 05:03:58;;;;;;;14.52;6.32;;;15.60;99.90;;;;;;4978848;28;20060;-91
2022/08/21 05:06:24;;;;;;;13.18;6.82;;;16.10;99.90;;;;;;4979542;28;20052;-91
2022/08/21 05:08:51;;;;;;;11.38;6.00;;;16.60;99.90;;;;;;4998969;28;20054;-91
2022/08/21 05:11:17;;;;;;;8.65;5.65;;;16.80;99.90;;;;;;5002483;28;20073;-90
2022/08/21 05:13:43;;;;;;;7.45;5.70;;;17.20;99.90;;;;;;4997122;28;20675;-87
2022/08/21 05:16:09;;;;;;;9.73;5.78;;;17.40;99.90;;;;;;5018870;28;20076;-88
2022/08/21 05:18:34;;;;;;;9.85;5.68;;;17.80;99.90;;;;;;5015969;28;20046;-88
2022/08/21 05:21:00;;;;;;;7.55;5.00;;;18.00;99.90;;;;;;5001414;28;20100;-89
2022/08/21 05:23:26;;;;;;;7.45;4.90;;;18.30;99.90;;;;;;5012998;28;20052;-92
2022/08/21 05:25:52;;;;;;;7.50;5.00;;;18.60;99.90;;;;;;4984009;28;20064;-93
2022/08/21 05:28:18;;;;;;;6.93;5.10;;;19.00;99.90;;;;;;4998535;28;20085;-89
2022/08/21 05:30:44;;;;;;;10.60;5.00;;;19.10;99.90;;;;;;4996486;28;20085;-89
2022/08/21 05:33:09;;;;;;;8.20;4.78;;;19.30;99.90;;;;;;4979273;28;20046;-89
2022/08/21 05:35:35;;;;;;;7.47;4.53;;;19.80;99.90;;;;;;4979379;28;20130;-88
2022/08/21 05:38:01;;;;;;;12.32;4.90;;;20.40;99.90;;;;;;4979178;28;20052;-88
2022/08/21 05:40:27;;;;;;;6.90;4.70;;;20.50;99.90;;;;;;4979242;28;20440;-90
2022/08/21 05:42:53;;;;;;;7.10;4.90;;;20.50;99.90;;;;;;4995111;28;20057;-88
2022/08/21 05:45:19;;;;;;;9.60;5.00;;;20.50;99.90;;;;;;4978932;28;20584;-89
2022/08/21 05:47:44;;;;;;;7.05;4.88;;;20.70;99.90;;;;;;4978525;28;20054;-90
2022/08/21 05:50:10;;;;;;;7.63;4.30;;;21.00;99.90;;;;;;4995616;28;20104;-91
2022/08/21 05:52:36;;;;;;;8.98;4.75;;;21.60;99.90;;;;;;4979818;28;20050;-91
2022/08/21 05:55:03;;;;;;;7.78;4.63;;;21.60;99.90;;;;;;4995135;28;20386;-92
2022/08/21 05:57:29;;;;;;;6.07;4.30;;;22.00;99.90;;;;;;4962722;28;20068;-91
2022/08/21 05:59:54;;;;;;;7.15;4.45;;;22.00;99.90;;;;;;4978464;28;20058;-89
2022/08/21 06:02:20;;;;;;;6.78;4.32;;;22.00;99.90;;;;;;5012540;28;20466;-90
2022/08/21 06:04:45;;;;;;;5.25;3.88;;;22.40;99.90;;;;;;4978343;28;20054;-90
2022/08/21 06:07:11;;;;;;;6.18;4.47;;;22.50;99.90;;;;;;4978587;28;20129;-91
2022/08/21 06:09:37;;;;;;;8.45;4.15;;;22.70;99.90;;;;;;4978764;28;20490;-93
2022/08/21 06:12:11;;;;;;;8.65;4.07;;;22.70;99.90;;;;;;4978567;28;20050;-90
2022/08/21 06:14:37;;;;;;;6.75;4.28;;;22.90;99.90;;;;;;4994535;28;20042;-89
2022/08/21 06:17:09;;;;;;;9.75;4.20;;;23.20;99.90;;;;;;4993934;28;20046;-89
2022/08/21 06:19:35;;;;;;;6.43;4.18;;;23.50;99.90;;;;;;4980513;28;20053;-91
2022/08/21 06:22:01;;;;;;;6.70;3.92;;;23.40;99.90;;;;;;4979932;28;20054;-90
2022/08/21 06:24:28;;;;;;;6.30;3.90;;;23.40;99.90;;;;;;4998736;28;20041;-90
2022/08/21 06:26:54;;;;;;;8.75;3.80;;;23.40;99.90;;;;;;4997111;28;20089;-88
2022/08/21 06:29:20;;;;;;;7.07;4.10;;;23.90;99.90;;;;;;4997901;28;20089;-88
2022/08/21 06:31:46;;;;;;;7.13;3.92;;;23.90;99.90;;;;;;5015635;28;20050;-89
2022/08/21 06:34:12;;;;;;;8.23;3.90;;;24.20;99.90;;;;;;4997695;28;20073;-87
2022/08/21 06:36:38;;;;;;;6.35;3.80;;;24.60;99.90;;;;;;4965187;28;20089;-88
2022/08/21 06:39:04;;;;;;;7.82;3.97;;;24.50;99.90;;;;;;5014249;28;20088;-87
2022/08/21 06:41:30;;;;;;;9.30;3.72;;;24.40;99.90;;;;;;4997440;28;20092;-87
2022/08/21 06:43:56;;;;;;;7.22;3.45;;;24.90;99.90;;;;;;4981092;28;20405;-88
2022/08/21 06:46:22;;;;;;;5.30;3.08;;;24.90;99.90;;;;;;4997440;28;20057;-88
2022/08/21 06:48:48;;;;;;;5.90;3.13;;;25.10;99.90;;;;;;4980313;28;20490;-88
2022/08/21 06:51:13;;;;;;;7.45;3.38;;;25.50;99.90;;;;;;4997097;28;20057;-88
2022/08/21 06:53:42;;;;;;;7.80;3.67;;;25.30;99.90;;;;;;4997485;28;20482;-88
2022/08/21 06:56:08;;;;;;;7.88;3.38;;;25.10;99.90;;;;;;4997107;28;20056;-90
2022/08/21 06:58:36;;;;;;;11.38;3.30;;;25.70;99.90;;;;;;4980683;28;20054;-89
2022/08/21 07:01:04;;;;;;;5.47;2.80;;;25.50;99.90;;;;;;4996785;28;20133;-89
2022/08/21 07:03:38;;;;;;;5.88;3.03;;;25.80;99.90;;;;;;4980825;28;20371;-88
2022/08/21 07:06:05;;;;;;;10.38;3.03;;;25.60;99.90;;;;;;4980760;28;20052;-87
2022/08/21 07:08:31;;;;;;;6.70;3.15;;;25.80;99.90;;;;;;4979884;28;20116;-87
2022/08/21 07:10:59;;;;;;;8.65;3.05;;;25.80;99.90;;;;;;4979011;28;20132;-86
2022/08/21 07:13:25;;;;;;;5.25;3.00;;;25.90;99.90;;;;;;4980737;28;20053;-86
2022/08/21 07:15:50;;;;;;;7.20;3.20;;;26.70;99.90;;;;;;4996738;28;20512;-88
2022/08/21 07:18:16;;;;;;;5.47;2.70;;;26.20;99.90;;;;;;4980092;28;20061;-87
2022/08/21 07:20:42;;;;;;;6.57;2.63;;;25.80;99.90;;;;;;4980375;28;20426;-86
2022/08/21 07:23:10;;;;;;;5.38;2.63;;;25.90;99.90;;;;;;4980265;28;20057;-88
2022/08/21 07:25:36;;;;;;;6.95;2.80;;;26.10;99.90;;;;;;4980754;28;20090;-87
2022/08/21 07:28:01;;;;;;;4.72;2.33;;;26.20;99.90;;;;;;4995967;28;20478;-82
2022/08/21 07:30:27;;;;;;;4.00;2.22;;;26.40;99.90;;;;;;4995933;28;20041;-81
2022/08/21 07:32:53;;;;;;;4.90;2.40;;;26.90;99.90;;;;;;5012813;28;20052;-81
2022/08/21 07:35:21;;;;;;;8.55;2.35;;;27.00;99.90;;;;;;5012455;28;20116;-81
2022/08/21 07:37:47;;;;;;;9.18;2.78;;;27.20;99.90;;;;;;5012956;28;20053;-81
2022/08/21 07:40:12;;;;;;;7.60;2.83;;;27.10;99.90;;;;;;4995103;28;20038;-81
2022/08/21 07:42:42;;;;;;;8.30;2.55;;;27.20;99.90;;;;;;5013463;28;20057;-80
2022/08/21 07:45:08;;;;;;;6.20;2.55;;;27.60;99.90;;;;;;4995093;28;20099;-80
2022/08/21 07:47:34;;;;;;;5.18;2.45;;;27.40;99.90;;;;;;4995618;28;20050;-80
2022/08/21 07:49:59;;;;;;;13.52;2.80;;;26.90;99.90;;;;;;5012735;28;20433;-81
2022/08/21 07:52:25;;;;;;;6.18;2.72;;;26.90;99.90;;;;;;5013060;28;20057;-81
2022/08/21 07:54:51;;;;;;;7.35;2.60;;;27.40;99.90;;;;;;5012866;28;20407;-79
2022/08/21 07:57:17;;;;;;;6.97;2.67;;;26.70;99.90;;;;;;4994919;28;20056;-79
2022/08/21 07:59:42;;;;;;;8.85;2.92;;;26.50;99.90;;;;;;4994862;28;20397;-78
2022/08/21 08:02:08;;;;;;;7.82;2.50;;;26.80;99.90;;;;;;5012009;28;20520;-78
2022/08/21 08:04:34;;;;;;;9.07;2.83;;;26.70;99.90;;;;;;5012649;28;20046;-84
2022/08/21 08:06:59;;;;;;;7.18;3.10;;;27.20;99.90;;;;;;4994727;28;20560;-85
2022/08/21 08:09:25;;;;;;;6.32;2.88;;;27.30;99.90;;;;;;4995594;28;20414;-89
2022/08/21 08:11:51;;;;;;;9.13;3.20;;;26.40;99.90;;;;;;4979080;28;20050;-84
2022/08/21 08:14:17;;;;;;;7.00;2.70;;;27.30;99.90;;;;;;5012347;28;20050;-85
2022/08/21 08:16:42;;;;;;;4.68;2.10;;;27.20;99.80;;;;;;5012801;28;20050;-86
2022/08/21 08:19:08;;;;;;;5.70;2.45;;;27.30;99.90;;;;;;4994356;28;20057;-87
2022/08/21 08:21:35;;;;;;;8.45;2.58;;;27.30;99.50;;;;;;5013072;28;20103;-87
2022/08/21 08:24:01;;;;;;;7.93;2.70;;;27.80;99.50;;;;;;4979694;28;20053;-87
2022/08/21 08:26:27;;;;;;;7.30;2.55;;;28.00;99.50;;;;;;4980745;28;20049;-88
2022/08/21 08:28:52;;;;;;;6.75;2.90;;;28.30;99.20;;;;;;4998146;28;20056;-86
2022/08/21 08:31:18;;;;;;;6.20;2.70;;;27.90;98.70;;;;;;5015613;28;20057;-85
2022/08/21 08:33:44;;;;;;;7.28;2.50;;;28.00;98.40;;;;;;4980901;28;20053;-85
2022/08/21 08:36:14;;;;;;;8.18;2.30;;;28.00;99.00;;;;;;5012742;28;20064;-86
2022/08/21 08:38:40;;;;;;;6.38;2.45;;;28.50;98.80;;;;;;4997669;28;20140;-87
2022/08/21 08:41:12;;;;;;;7.40;2.60;;;28.50;97.80;;;;;;4981745;28;20077;-85
2022/08/21 08:43:38;;;;;;;7.53;2.47;;;28.40;97.80;;;;;;4996769;28;20050;-87
2022/08/21 08:46:08;;;;;;;6.30;2.40;;;28.50;97.50;;;;;;4995274;28;20536;-85
2022/08/21 08:48:40;;;;;;;6.55;2.28;;;28.70;97.60;;;;;;5012141;28;20145;-86
2022/08/21 08:51:09;;;;;;;4.90;2.15;;;27.70;97.90;;;;;;5012318;28;20498;-84
2022/08/21 08:53:44;;;;;;;5.85;2.22;;;28.10;97.80;;;;;;4995925;28;20077;-87
2022/08/21 08:56:10;;;;;;;7.85;2.50;;;28.30;97.20;;;;;;4998450;28;20041;-84
2022/08/21 08:58:40;;;;;;;6.18;2.63;;;28.10;97.80;;;;;;4977658;28;20088;-87
2022/08/21 09:01:11;;;;;;;7.00;2.22;;;28.70;97.10;;;;;;4989952;28;20061;-87
2022/08/21 09:03:37;;;;;;;6.53;2.17;;;28.70;97.10;;;;;;5007113;28;20065;-86
2022/08/21 09:06:03;;;;;;;8.93;2.70;;;28.70;96.30;;;;;;5004258;28;20046;-86
2022/08/21 09:08:54;;;;;;;6.88;2.45;;;28.80;96.80;;;;;;5110504;27;20422;-85
2022/08/21 09:11:32;;;;;;;7.90;2.60;;;28.40;96.40;;;;;;5108461;28;20124;-86
2022/08/21 09:14:36;;;;;;;6.18;2.40;;;28.60;96.50;;;;;;5091695;28;20113;-86
2022/08/21 09:17:26;;;;;;;9.65;2.50;;;28.50;97.00;;;;;;5108918;28;20051;-88
2022/08/21 09:20:14;;;;;;;5.90;2.60;;;29.00;96.30;;;;;;5108925;28;20442;-87
2022/08/21 09:22:45;;;;;;;5.30;2.17;;;28.80;96.00;;;;;;5109035;28;20479;-87
2022/08/21 09:25:22;;;;;;;6.53;2.28;;;28.50;96.20;;;;;;5109579;28;20597;-88
2022/08/21 09:27:48;;;;;;;5.00;2.05;;;28.30;96.10;;;;;;5092474;28;20044;-86
2022/08/21 09:30:14;;;;;;;7.97;2.20;;;28.80;96.80;;;;;;5108032;28;20051;-85
2022/08/21 09:32:39;;;;;;;7.82;2.05;;;28.80;96.10;;;;;;5109585;28;20079;-86
2022/08/21 09:35:17;;;;;;;5.10;1.90;;;29.60;95.90;;;;;;5090737;28;20046;-86
2022/08/21 09:37:56;;;;;;;5.15;2.00;;;29.30;95.40;;;;;;5091603;28;20332;-86
2022/08/21 09:40:47;;;;;;;6.43;1.77;;;29.60;95.40;;;;;;5091196;28;20458;-87
2022/08/21 09:43:19;;;;;;;6.75;2.03;;;29.90;94.90;;;;;;5107799;28;20052;-86
2022/08/21 09:45:47;;;;;;;3.03;1.63;;;30.00;95.00;;;;;;5093286;28;20086;-87
2022/08/21 09:48:24;;;;;;;5.28;1.95;;;29.90;94.90;;;;;;5092152;28;20083;-87
2022/08/21 09:50:50;;;;;;;5.60;2.03;;;30.10;94.40;;;;;;5056902;28;20051;-89
2022/08/21 09:53:27;;;;;;;7.43;1.90;;;30.10;95.30;;;;;;5091709;28;20055;-89
2022/08/21 09:58:41;;;;;;;7.10;1.98;;;30.30;95.20;;;;;;5079202;28;20440;-87
2022/08/21 10:01:06;;;;;;;6.05;1.73;;;30.00;95.00;;;;;;5090722;28;20043;-89
2022/08/21 10:03:32;;;;;;;7.63;1.60;;;30.10;95.00;;;;;;5090206;28;20119;-87
2022/08/21 10:06:00;;;;;;;4.30;1.52;;;30.30;94.80;;;;;;5089778;28;20056;-87
2022/08/21 10:08:27;;;;;;;4.05;1.50;;;30.10;94.50;;;;;;5088382;28;20055;-87
2022/08/21 10:11:01;;;;;;;7.38;1.70;;;30.10;94.90;;;;;;5089584;28;20049;-89
2022/08/21 10:13:45;;;;;;;3.55;1.50;;;29.70;95.00;;;;;;5089545;28;20138;-87
2022/08/21 10:16:29;;;;;;;5.25;1.90;;;29.10;95.20;;;;;;5105806;28;20415;-87
2022/08/21 10:19:14;;;;;;;8.07;2.20;;;30.00;94.80;;;;;;5098397;28;20059;-89
2022/08/21 10:21:53;;;;;;;6.03;1.73;;;30.00;94.40;;;;;;5091532;28;20415;-87
2022/08/21 10:24:28;;;;;;;4.43;1.60;;;30.90;94.70;;;;;;5091141;28;20083;-88
2022/08/21 10:27:20;;;;;;;4.22;1.40;;;30.50;94.30;;;;;;5076079;28;20051;-89
2022/08/21 10:29:51;;;;;;;4.70;1.60;;;29.90;94.90;;;;;;5076495;28;20093;-89
2022/08/21 10:32:29;;;;;;;5.15;1.70;;;29.90;95.20;;;;;;5074447;28;20476;-89
2022/08/21 10:35:08;;;;;;;3.80;1.30;;;30.00;95.30;;;;;;5058505;28;20083;-86
2022/08/21 10:37:52;;;;;;;5.20;1.52;;;29.20;95.30;;;;;;5089396;28;20064;-88
2022/08/21 10:40:41;;;;;;;5.03;1.90;;;28.70;95.50;;;;;;5091564;28;20051;-88
2022/08/21 10:43:16;;;;;;;4.00;1.70;;;29.00;95.60;;;;;;5064216;28;20056;-89
2022/08/21 10:45:53;;;;;;;4.38;1.40;;;29.40;95.70;;;;;;5059261;28;20130;-87
2022/08/21 10:48:24;;;;;;;7.47;1.40;;;29.20;94.60;;;;;;5075160;28;20052;-88
2022/08/21 10:50:59;;;;;;;4.82;1.70;;;28.90;95.00;;;;;;5075382;28;20139;-88
2022/08/21 10:53:42;;;;;;;7.07;1.70;;;28.60;95.70;;;;;;5090429;28;20051;-88
2022/08/21 10:56:26;;;;;;;6.78;1.63;;;28.90;96.20;;;;;;5042104;28;20047;-89
2022/08/21 10:59:30;;;;;;;5.82;1.60;;;28.30;96.10;;;;;;5074902;28;20058;-88
2022/08/21 11:02:13;;;;;;;6.20;1.70;;;28.60;96.10;;;;;;5071073;28;20093;-87
2022/08/21 11:04:53;;;;;;;4.78;1.67;;;28.80;96.20;;;;;;5042762;28;20491;-88
2022/08/21 11:07:27;;;;;;;4.43;1.73;;;28.20;96.10;;;;;;5073886;28;20071;-89
2022/08/21 11:09:55;;;;;;;3.95;1.40;;;27.80;95.80;;;;;;5076233;28;20051;-91
2022/08/21 11:12:27;;;;;;;4.97;1.75;;;28.60;96.10;;;;;;5074426;28;20412;-88
2022/08/21 11:15:09;;;;;;;6.05;1.90;;;28.60;95.60;;;;;;5091738;28;20083;-87
2022/08/21 11:17:38;;;;;;;5.63;1.67;;;28.40;95.90;;;;;;5091570;28;20039;-89
2022/08/21 11:20:39;;;;;;;5.57;1.88;;;28.50;95.90;;;;;;5074532;28;20040;-89
2022/08/21 11:23:13;;;;;;;4.60;1.63;;;28.10;95.90;;;;;;5076691;28;20063;-90
2022/08/21 11:25:46;;;;;;;4.57;1.65;;;27.50;96.80;;;;;;5058440;28;20113;-89
2022/08/21 11:28:36;;;;;;;3.77;1.40;;;27.40;96.50;;;;;;5058357;28;20055;-87
2022/08/21 11:31:15;;;;;;;2.90;1.35;;;27.30;96.50;;;;;;5058224;28;20055;-87
2022/08/21 11:34:02;;;;;;;5.22;1.58;;;27.70;96.70;;;;;;5074348;28;20056;-87
2022/08/21 11:36:38;;;;;;;2.75;1.30;;;27.10;96.20;;;;;;5090818;28;20056;-88
2022/08/21 11:39:25;;;;;;;4.95;1.40;;;27.60;97.10;;;;;;5074645;28;20096;-87
2022/08/21 11:42:07;;;;;;;10.95;2.67;;;27.70;95.80;;;;;;5090933;28;20491;-89
2022/08/21 11:44:38;;;;;;;5.60;1.70;;;27.80;95.70;;;;;;5074982;28;20415;-91
2022/08/21 11:47:32;;;;;;;5.50;1.40;;;28.00;95.80;;;;;;5087772;28;20080;-89
2022/08/21 11:50:08;;;;;;;5.40;1.75;;;28.20;95.80;;;;;;5040209;28;20048;-88
2022/08/21 11:52:47;;;;;;;5.35;1.95;;;27.50;96.50;;;;;;5071792;28;20481;-90
2022/08/21 11:55:19;;;;;;;5.22;1.70;;;27.10;97.00;;;;;;5055322;28;20078;-90
2022/08/21 11:57:55;;;;;;;5.97;1.70;;;27.00;97.40;;;;;;5087865;28;20056;-89
2022/08/21 12:00:29;;;;;;;6.50;1.70;;;26.70;97.70;;;;;;5038714;28;20057;-90
2022/08/21 12:02:58;;;;;;;6.68;1.83;;;26.50;97.60;;;;;;5073391;28;20519;-87
2022/08/21 12:05:45;;;;;;;4.00;1.42;;;26.20;98.10;;;;;;5073663;28;20077;-88
2022/08/21 12:08:26;;;;;;;6.95;1.85;;;25.70;98.10;;;;;;5056717;28;20139;-89
2022/08/21 12:11:23;;;;;;;4.93;1.83;;;26.10;98.70;;;;;;5058261;28;20056;-89
2022/08/21 12:13:59;;;;;;;3.72;1.83;;;26.50;97.80;;;;;;5089823;28;20185;-89
2022/08/21 12:16:35;;;;;;;4.07;1.67;;;26.30;97.60;;;;;;5074453;28;20086;-89
2022/08/21 12:19:11;;;;;;;5.28;1.60;;;26.20;97.80;;;;;;5057411;28;20354;-86
2022/08/21 12:21:55;;;;;;;4.90;1.60;;;26.10;98.00;;;;;;5072953;28;20056;-86
2022/08/21 12:24:33;;;;;;;4.32;2.25;;;26.00;98.20;;;;;;5056781;28;20087;-85
2022/08/21 12:27:29;;;;;;;4.93;1.63;;;25.90;98.30;;;;;;5073008;28;20052;-86
2022/08/21 12:30:07;;;;;;;4.32;1.63;;;25.60;98.50;;;;;;5074817;28;20052;-87
2022/08/21 12:32:44;;;;;;;4.82;2.30;;;25.50;98.70;;;;;;5097974;28;20488;-88
2022/08/21 12:35:23;;;;;;;5.03;1.58;;;25.40;99.20;;;;;;5061772;28;20063;-88
2022/08/21 12:38:02;;;;;;;4.28;1.67;;;25.60;99.30;;;;;;5057902;28;20146;-87
2022/08/21 12:40:37;;;;;;;5.25;1.80;;;25.80;99.40;;;;;;5058279;28;20062;-87
2022/08/21 12:43:03;;;;;;;7.00;1.70;;;25.60;98.50;;;;;;5057635;28;20052;-88
2022/08/21 12:45:34;;;;;;;4.50;1.63;;;25.80;99.20;;;;;;5041238;28;20078;-87
2022/08/21 12:48:05;;;;;;;6.00;1.70;;;25.70;99.40;;;;;;5060829;28;20036;-87
2022/08/21 12:50:44;;;;;;;4.55;2.00;;;25.60;99.10;;;;;;5087183;28;20048;-88
2022/08/21 12:53:21;;;;;;;6.07;2.50;;;25.30;99.50;;;;;;5085236;28;20059;-87
2022/08/21 12:55:47;;;;;;;7.18;2.10;;;25.00;99.90;;;;;;5064095;28;20052;-87
2022/08/21 12:58:23;;;;;;;5.93;2.00;;;25.10;99.90;;;;;;5092762;28;20047;-87
2022/08/21 13:00:51;;;;;;;4.25;1.70;;;25.00;99.90;;;;;;5076077;28;20060;-88